sensor_id;sensor_type;location;lat;lon;timestamp;P1;durP1;ratioP1;P2;durP2;ratioP2
4857;SDS011;58975;51.978;8.472;2022-11-04T00:01:55;5.97;;;4.40;;
4857;SDS011;58975;51.978;8.472;2022-11-04T00:06:54;10.27;;;5.43;;
4857;SDS011;58975;51.978;8.472;2022-11-04T00:11:51;5.38;;;4.20;;
4857;SDS011;58975;51.978;8.472;2022-11-04T00:17:10;5.18;;;3.60;;
4857;SDS011;58975;51.978;8.472;2022-11-04T00:22:17;7.20;;;4.60;;
4857;SDS011;58975;51.978;8.472;2022-11-04T00:27:32;9.32;;;3.53;;
4857;SDS011;58975;51.978;8.472;2022-11-04T00:32:47;6.32;;;3.83;;
4857;SDS011;58975;51.978;8.472;2022-11-04T00:38:02;4.00;;;3.13;;
4857;SDS011;58975;51.978;8.472;2022-11-04T00:42:59;9.57;;;3.33;;
4857;SDS011;58975;51.978;8.472;2022-11-04T00:47:55;4.57;;;3.83;;
4857;SDS011;58975;51.978;8.472;2022-11-04T00:52:57;6.50;;;4.07;;
4857;SDS011;58975;51.978;8.472;2022-11-04T00:57:55;8.27;;;4.55;;
4857;SDS011;58975;51.978;8.472;2022-11-04T01:02:53;6.38;;;4.97;;
4857;SDS011;58975;51.978;8.472;2022-11-04T01:07:49;6.78;;;4.15;;
4857;SDS011;58975;51.978;8.472;2022-11-04T01:12:45;3.50;;;3.17;;
4857;SDS011;58975;51.978;8.472;2022-11-04T01:17:42;3.33;;;2.38;;
4857;SDS011;58975;51.978;8.472;2022-11-04T01:22:38;5.05;;;1.77;;
4857;SDS011;58975;51.978;8.472;2022-11-04T01:27:35;2.28;;;1.63;;
4857;SDS011;58975;51.978;8.472;2022-11-04T01:32:31;1.50;;;1.40;;
4857;SDS011;58975;51.978;8.472;2022-11-04T01:37:27;1.90;;;1.75;;
4857;SDS011;58975;51.978;8.472;2022-11-04T01:42:24;2.28;;;1.30;;
4857;SDS011;58975;51.978;8.472;2022-11-04T01:52:30;3.22;;;2.00;;
4857;SDS011;58975;51.978;8.472;2022-11-04T01:57:33;2.00;;;1.65;;
4857;SDS011;58975;51.978;8.472;2022-11-04T02:02:36;3.78;;;2.22;;
4857;SDS011;58975;51.978;8.472;2022-11-04T02:07:41;5.78;;;3.47;;
4857;SDS011;58975;51.978;8.472;2022-11-04T02:12:38;4.32;;;2.15;;
4857;SDS011;58975;51.978;8.472;2022-11-04T02:17:57;3.47;;;2.38;;
4857;SDS011;58975;51.978;8.472;2022-11-04T02:23:05;5.47;;;2.13;;
4857;SDS011;58975;51.978;8.472;2022-11-04T02:28:32;3.85;;;2.35;;
4857;SDS011;58975;51.978;8.472;2022-11-04T02:33:49;2.78;;;2.40;;
4857;SDS011;58975;51.978;8.472;2022-11-04T02:38:55;2.85;;;2.00;;
4857;SDS011;58975;51.978;8.472;2022-11-04T02:44:19;4.53;;;2.97;;
4857;SDS011;58975;51.978;8.472;2022-11-04T02:49:18;5.82;;;3.42;;
4857;SDS011;58975;51.978;8.472;2022-11-04T02:59:19;4.03;;;3.40;;
4857;SDS011;58975;51.978;8.472;2022-11-04T03:04:25;4.63;;;3.58;;
4857;SDS011;58975;51.978;8.472;2022-11-04T03:09:26;5.57;;;3.80;;
4857;SDS011;58975;51.978;8.472;2022-11-04T03:14:31;4.07;;;3.47;;
4857;SDS011;58975;51.978;8.472;2022-11-04T03:20:11;4.40;;;3.30;;
4857;SDS011;58975;51.978;8.472;2022-11-04T03:25:05;4.97;;;4.13;;
4857;SDS011;58975;51.978;8.472;2022-11-04T03:30:38;4.18;;;3.70;;
4857;SDS011;58975;51.978;8.472;2022-11-04T03:40:28;6.70;;;3.97;;
4857;SDS011;58975;51.978;8.472;2022-11-04T03:45:25;7.43;;;4.60;;
4857;SDS011;58975;51.978;8.472;2022-11-04T03:50:24;5.60;;;4.63;;
4857;SDS011;58975;51.978;8.472;2022-11-04T03:55:23;9.48;;;4.72;;
4857;SDS011;58975;51.978;8.472;2022-11-04T04:00:33;5.03;;;4.40;;
4857;SDS011;58975;51.978;8.472;2022-11-04T04:05:43;11.35;;;4.35;;
4857;SDS011;58975;51.978;8.472;2022-11-04T04:21:35;5.13;;;4.28;;
4857;SDS011;58975;51.978;8.472;2022-11-04T04:26:38;6.95;;;4.88;;
4857;SDS011;58975;51.978;8.472;2022-11-04T04:31:54;7.38;;;5.00;;
4857;SDS011;58975;51.978;8.472;2022-11-04T04:41:55;6.47;;;5.30;;
4857;SDS011;58975;51.978;8.472;2022-11-04T04:47:16;9.55;;;5.90;;
4857;SDS011;58975;51.978;8.472;2022-11-04T04:52:18;7.25;;;5.07;;
4857;SDS011;58975;51.978;8.472;2022-11-04T05:02:13;12.25;;;5.10;;
4857;SDS011;58975;51.978;8.472;2022-11-04T05:07:10;10.57;;;5.13;;
4857;SDS011;58975;51.978;8.472;2022-11-04T05:12:07;10.73;;;6.03;;
4857;SDS011;58975;51.978;8.472;2022-11-04T05:17:05;17.45;;;6.90;;
4857;SDS011;58975;51.978;8.472;2022-11-04T05:22:01;8.43;;;5.22;;
4857;SDS011;58975;51.978;8.472;2022-11-04T05:26:59;15.45;;;5.93;;
4857;SDS011;58975;51.978;8.472;2022-11-04T05:31:55;9.80;;;5.22;;
4857;SDS011;58975;51.978;8.472;2022-11-04T05:36:52;9.68;;;5.15;;
4857;SDS011;58975;51.978;8.472;2022-11-04T05:41:48;11.32;;;5.60;;
4857;SDS011;58975;51.978;8.472;2022-11-04T05:46:45;7.47;;;5.25;;
4857;SDS011;58975;51.978;8.472;2022-11-04T05:51:41;5.90;;;4.40;;
4857;SDS011;58975;51.978;8.472;2022-11-04T05:56:38;10.10;;;5.45;;
4857;SDS011;58975;51.978;8.472;2022-11-04T06:01:36;8.65;;;4.68;;
4857;SDS011;58975;51.978;8.472;2022-11-04T06:06:36;6.35;;;4.88;;
4857;SDS011;58975;51.978;8.472;2022-11-04T06:11:34;9.00;;;4.47;;
4857;SDS011;58975;51.978;8.472;2022-11-04T06:16:31;7.82;;;4.82;;
4857;SDS011;58975;51.978;8.472;2022-11-04T06:21:28;6.30;;;3.83;;
4857;SDS011;58975;51.978;8.472;2022-11-04T06:26:27;6.93;;;4.15;;
4857;SDS011;58975;51.978;8.472;2022-11-04T06:31:24;11.65;;;4.50;;
4857;SDS011;58975;51.978;8.472;2022-11-04T06:36:21;10.90;;;3.90;;
4857;SDS011;58975;51.978;8.472;2022-11-04T06:41:17;9.50;;;3.78;;
4857;SDS011;58975;51.978;8.472;2022-11-04T06:46:48;10.82;;;4.03;;
4857;SDS011;58975;51.978;8.472;2022-11-04T06:51:37;10.23;;;4.18;;
4857;SDS011;58975;51.978;8.472;2022-11-04T06:56:34;10.27;;;4.13;;
4857;SDS011;58975;51.978;8.472;2022-11-04T07:01:32;8.20;;;4.28;;
4857;SDS011;58975;51.978;8.472;2022-11-04T07:06:31;8.55;;;4.78;;
4857;SDS011;58975;51.978;8.472;2022-11-04T07:11:28;12.05;;;4.50;;
4857;SDS011;58975;51.978;8.472;2022-11-04T07:16:26;18.17;;;4.35;;
4857;SDS011;58975;51.978;8.472;2022-11-04T07:21:22;6.60;;;3.97;;
4857;SDS011;58975;51.978;8.472;2022-11-04T07:26:19;14.77;;;4.07;;
4857;SDS011;58975;51.978;8.472;2022-11-04T07:31:15;8.48;;;2.90;;
4857;SDS011;58975;51.978;8.472;2022-11-04T07:36:13;6.60;;;2.95;;
4857;SDS011;58975;51.978;8.472;2022-11-04T07:41:10;10.85;;;2.88;;
4857;SDS011;58975;51.978;8.472;2022-11-04T07:46:08;7.93;;;2.85;;
4857;SDS011;58975;51.978;8.472;2022-11-04T07:51:08;7.78;;;2.72;;
4857;SDS011;58975;51.978;8.472;2022-11-04T07:56:08;10.23;;;3.25;;
4857;SDS011;58975;51.978;8.472;2022-11-04T08:01:13;7.18;;;3.17;;
4857;SDS011;58975;51.978;8.472;2022-11-04T08:06:13;11.82;;;3.47;;
4857;SDS011;58975;51.978;8.472;2022-11-04T08:11:14;11.32;;;3.20;;
4857;SDS011;58975;51.978;8.472;2022-11-04T08:16:14;12.30;;;3.08;;
4857;SDS011;58975;51.978;8.472;2022-11-04T08:21:13;7.03;;;2.30;;
4857;SDS011;58975;51.978;8.472;2022-11-04T08:26:13;7.80;;;2.67;;
4857;SDS011;58975;51.978;8.472;2022-11-04T08:31:21;8.55;;;2.50;;
4857;SDS011;58975;51.978;8.472;2022-11-04T08:36:25;8.35;;;2.60;;
4857;SDS011;58975;51.978;8.472;2022-11-04T08:41:29;3.17;;;1.92;;
4857;SDS011;58975;51.978;8.472;2022-11-04T08:46:27;11.32;;;2.35;;
4857;SDS011;58975;51.978;8.472;2022-11-04T08:51:28;11.95;;;3.03;;
4857;SDS011;58975;51.978;8.472;2022-11-04T08:56:28;5.55;;;1.63;;
4857;SDS011;58975;51.978;8.472;2022-11-04T09:01:26;7.03;;;1.75;;
4857;SDS011;58975;51.978;8.472;2022-11-04T09:06:33;11.52;;;1.92;;
4857;SDS011;58975;51.978;8.472;2022-11-04T09:11:32;8.98;;;2.47;;
4857;SDS011;58975;51.978;8.472;2022-11-04T09:16:32;7.90;;;3.25;;
4857;SDS011;58975;51.978;8.472;2022-11-04T09:21:29;10.20;;;3.15;;
4857;SDS011;58975;51.978;8.472;2022-11-04T09:26:26;7.55;;;1.80;;
4857;SDS011;58975;51.978;8.472;2022-11-04T09:31:23;7.60;;;2.20;;
4857;SDS011;58975;51.978;8.472;2022-11-04T09:36:21;10.07;;;2.07;;
4857;SDS011;58975;51.978;8.472;2022-11-04T09:41:23;5.93;;;1.77;;
4857;SDS011;58975;51.978;8.472;2022-11-04T09:46:30;8.30;;;2.03;;
4857;SDS011;58975;51.978;8.472;2022-11-04T09:51:28;12.05;;;2.30;;
4857;SDS011;58975;51.978;8.472;2022-11-04T09:56:47;7.50;;;1.95;;
4857;SDS011;58975;51.978;8.472;2022-11-04T10:22:24;9.32;;;3.00;;
4857;SDS011;58975;51.978;8.472;2022-11-04T10:27:28;7.78;;;2.90;;
4857;SDS011;58975;51.978;8.472;2022-11-04T10:32:29;9.75;;;4.10;;
4857;SDS011;58975;51.978;8.472;2022-11-04T10:37:32;15.07;;;4.35;;
4857;SDS011;58975;51.978;8.472;2022-11-04T10:42:29;10.40;;;3.45;;
4857;SDS011;58975;51.978;8.472;2022-11-04T10:52:37;8.73;;;3.20;;
4857;SDS011;58975;51.978;8.472;2022-11-04T10:57:34;9.27;;;2.85;;
4857;SDS011;58975;51.978;8.472;2022-11-04T11:07:36;7.88;;;3.03;;
4857;SDS011;58975;51.978;8.472;2022-11-04T11:12:33;12.20;;;3.47;;
4857;SDS011;58975;51.978;8.472;2022-11-04T11:18:10;10.75;;;3.80;;
4857;SDS011;58975;51.978;8.472;2022-11-04T11:28:47;8.77;;;3.90;;
4857;SDS011;58975;51.978;8.472;2022-11-04T11:43:49;11.48;;;3.80;;
4857;SDS011;58975;51.978;8.472;2022-11-04T11:48:51;7.68;;;4.45;;
4857;SDS011;58975;51.978;8.472;2022-11-04T12:04:52;9.98;;;4.38;;
4857;SDS011;58975;51.978;8.472;2022-11-04T12:10:23;15.88;;;4.80;;
4857;SDS011;58975;51.978;8.472;2022-11-04T12:21:23;12.50;;;4.97;;
4857;SDS011;58975;51.978;8.472;2022-11-04T12:31:31;12.20;;;5.05;;
4857;SDS011;58975;51.978;8.472;2022-11-04T12:36:43;11.15;;;4.57;;
4857;SDS011;58975;51.978;8.472;2022-11-04T12:47:36;10.23;;;4.18;;
4857;SDS011;58975;51.978;8.472;2022-11-04T12:53:19;12.45;;;4.22;;
4857;SDS011;58975;51.978;8.472;2022-11-04T12:58:09;9.90;;;4.50;;
4857;SDS011;58975;51.978;8.472;2022-11-04T13:03:33;10.47;;;3.37;;
4857;SDS011;58975;51.978;8.472;2022-11-04T13:08:45;5.80;;;2.90;;
4857;SDS011;58975;51.978;8.472;2022-11-04T13:14:08;6.82;;;2.20;;
4857;SDS011;58975;51.978;8.472;2022-11-04T13:19:22;3.75;;;2.42;;
4857;SDS011;58975;51.978;8.472;2022-11-04T13:24:25;5.07;;;2.25;;
4857;SDS011;58975;51.978;8.472;2022-11-04T13:29:25;5.25;;;3.08;;
4857;SDS011;58975;51.978;8.472;2022-11-04T13:34:30;8.13;;;1.80;;
4857;SDS011;58975;51.978;8.472;2022-11-04T13:39:38;3.13;;;2.10;;
4857;SDS011;58975;51.978;8.472;2022-11-04T13:44:41;7.25;;;3.00;;
4857;SDS011;58975;51.978;8.472;2022-11-04T13:49:40;7.43;;;2.47;;
4857;SDS011;58975;51.978;8.472;2022-11-04T13:54:37;4.00;;;1.88;;
4857;SDS011;58975;51.978;8.472;2022-11-04T13:59:39;3.63;;;1.50;;
4857;SDS011;58975;51.978;8.472;2022-11-04T14:04:37;7.80;;;1.40;;
4857;SDS011;58975;51.978;8.472;2022-11-04T14:09:48;6.50;;;1.70;;
4857;SDS011;58975;51.978;8.472;2022-11-04T14:14:51;5.30;;;1.85;;
4857;SDS011;58975;51.978;8.472;2022-11-04T14:24:55;6.88;;;2.10;;
4857;SDS011;58975;51.978;8.472;2022-11-04T14:29:53;11.10;;;3.03;;
4857;SDS011;58975;51.978;8.472;2022-11-04T14:34:57;8.98;;;2.95;;
4857;SDS011;58975;51.978;8.472;2022-11-04T14:39:57;8.10;;;2.00;;
4857;SDS011;58975;51.978;8.472;2022-11-04T14:44:56;10.10;;;1.85;;
4857;SDS011;58975;51.978;8.472;2022-11-04T14:49:59;7.85;;;2.50;;
4857;SDS011;58975;51.978;8.472;2022-11-04T15:05:37;7.60;;;1.77;;
4857;SDS011;58975;51.978;8.472;2022-11-04T15:10:34;7.50;;;2.17;;
4857;SDS011;58975;51.978;8.472;2022-11-04T15:15:34;4.10;;;1.40;;
4857;SDS011;58975;51.978;8.472;2022-11-04T15:20:35;6.05;;;2.28;;
4857;SDS011;58975;51.978;8.472;2022-11-04T15:25:35;13.18;;;2.55;;
4857;SDS011;58975;51.978;8.472;2022-11-04T15:30:38;6.25;;;1.70;;
4857;SDS011;58975;51.978;8.472;2022-11-04T15:35:35;9.57;;;2.13;;
4857;SDS011;58975;51.978;8.472;2022-11-04T15:40:38;7.07;;;2.00;;
4857;SDS011;58975;51.978;8.472;2022-11-04T15:45:38;5.90;;;1.60;;
4857;SDS011;58975;51.978;8.472;2022-11-04T15:56:00;4.60;;;1.85;;
4857;SDS011;58975;51.978;8.472;2022-11-04T16:00:57;3.22;;;1.40;;
4857;SDS011;58975;51.978;8.472;2022-11-04T16:06:01;3.15;;;1.70;;
4857;SDS011;58975;51.978;8.472;2022-11-04T16:11:06;7.05;;;2.38;;
4857;SDS011;58975;51.978;8.472;2022-11-04T16:16:27;5.70;;;2.58;;
4857;SDS011;58975;51.978;8.472;2022-11-04T16:26:23;9.32;;;2.13;;
4857;SDS011;58975;51.978;8.472;2022-11-04T16:36:20;4.80;;;1.63;;
4857;SDS011;58975;51.978;8.472;2022-11-04T16:41:20;3.97;;;1.88;;
4857;SDS011;58975;51.978;8.472;2022-11-04T16:46:17;6.38;;;1.75;;
4857;SDS011;58975;51.978;8.472;2022-11-04T16:51:18;4.57;;;1.85;;
4857;SDS011;58975;51.978;8.472;2022-11-04T16:56:17;8.30;;;3.03;;
4857;SDS011;58975;51.978;8.472;2022-11-04T17:01:16;5.57;;;1.80;;
4857;SDS011;58975;51.978;8.472;2022-11-04T17:06:14;3.55;;;2.50;;
4857;SDS011;58975;51.978;8.472;2022-11-04T17:11:14;4.82;;;2.55;;
4857;SDS011;58975;51.978;8.472;2022-11-04T17:16:11;16.77;;;2.78;;
4857;SDS011;58975;51.978;8.472;2022-11-04T17:26:10;11.63;;;2.78;;
4857;SDS011;58975;51.978;8.472;2022-11-04T17:31:08;7.22;;;2.25;;
4857;SDS011;58975;51.978;8.472;2022-11-04T17:36:14;4.95;;;2.17;;
4857;SDS011;58975;51.978;8.472;2022-11-04T17:41:13;13.15;;;6.25;;
4857;SDS011;58975;51.978;8.472;2022-11-04T17:46:28;6.45;;;2.72;;
4857;SDS011;58975;51.978;8.472;2022-11-04T17:51:29;7.80;;;2.85;;
4857;SDS011;58975;51.978;8.472;2022-11-04T17:56:26;8.27;;;3.78;;
4857;SDS011;58975;51.978;8.472;2022-11-04T18:01:22;4.63;;;2.05;;
4857;SDS011;58975;51.978;8.472;2022-11-04T18:06:20;4.07;;;2.03;;
4857;SDS011;58975;51.978;8.472;2022-11-04T18:11:16;10.40;;;4.25;;
4857;SDS011;58975;51.978;8.472;2022-11-04T18:16:31;5.05;;;2.97;;
4857;SDS011;58975;51.978;8.472;2022-11-04T18:21:28;7.05;;;2.67;;
4857;SDS011;58975;51.978;8.472;2022-11-04T18:26:26;3.17;;;2.50;;
4857;SDS011;58975;51.978;8.472;2022-11-04T18:31:29;6.50;;;4.22;;
4857;SDS011;58975;51.978;8.472;2022-11-04T18:36:28;9.05;;;4.20;;
4857;SDS011;58975;51.978;8.472;2022-11-04T18:41:26;9.20;;;3.73;;
4857;SDS011;58975;51.978;8.472;2022-11-04T18:46:22;8.32;;;4.63;;
4857;SDS011;58975;51.978;8.472;2022-11-04T18:51:20;7.43;;;4.70;;
4857;SDS011;58975;51.978;8.472;2022-11-04T18:56:18;6.22;;;4.43;;
4857;SDS011;58975;51.978;8.472;2022-11-04T19:01:23;9.50;;;4.50;;
4857;SDS011;58975;51.978;8.472;2022-11-04T19:06:26;10.55;;;6.28;;
4857;SDS011;58975;51.978;8.472;2022-11-04T19:11:26;11.45;;;6.45;;
4857;SDS011;58975;51.978;8.472;2022-11-04T19:16:25;10.50;;;6.38;;
4857;SDS011;58975;51.978;8.472;2022-11-04T19:21:22;10.63;;;7.13;;
4857;SDS011;58975;51.978;8.472;2022-11-04T19:26:21;10.13;;;6.72;;
4857;SDS011;58975;51.978;8.472;2022-11-04T19:31:20;13.32;;;5.30;;
4857;SDS011;58975;51.978;8.472;2022-11-04T19:36:20;10.32;;;6.03;;
4857;SDS011;58975;51.978;8.472;2022-11-04T19:41:17;10.05;;;5.75;;
4857;SDS011;58975;51.978;8.472;2022-11-04T19:46:33;9.25;;;5.35;;
4857;SDS011;58975;51.978;8.472;2022-11-04T19:51:30;9.10;;;6.35;;
4857;SDS011;58975;51.978;8.472;2022-11-04T19:56:27;8.25;;;5.95;;
4857;SDS011;58975;51.978;8.472;2022-11-04T20:01:24;6.57;;;5.00;;
4857;SDS011;58975;51.978;8.472;2022-11-04T20:06:21;8.57;;;5.82;;
4857;SDS011;58975;51.978;8.472;2022-11-04T20:11:18;7.15;;;5.35;;
4857;SDS011;58975;51.978;8.472;2022-11-04T20:16:19;8.20;;;5.30;;
4857;SDS011;58975;51.978;8.472;2022-11-04T20:21:21;14.40;;;7.28;;
4857;SDS011;58975;51.978;8.472;2022-11-04T20:26:19;12.27;;;5.97;;
4857;SDS011;58975;51.978;8.472;2022-11-04T20:31:22;11.10;;;5.75;;
4857;SDS011;58975;51.978;8.472;2022-11-04T20:36:22;8.80;;;5.47;;
4857;SDS011;58975;51.978;8.472;2022-11-04T20:41:20;6.97;;;4.95;;
4857;SDS011;58975;51.978;8.472;2022-11-04T20:46:18;9.27;;;5.78;;
4857;SDS011;58975;51.978;8.472;2022-11-04T20:51:18;9.25;;;6.20;;
4857;SDS011;58975;51.978;8.472;2022-11-04T20:56:16;10.90;;;6.22;;
4857;SDS011;58975;51.978;8.472;2022-11-04T21:01:16;10.27;;;6.37;;
4857;SDS011;58975;51.978;8.472;2022-11-04T21:06:20;12.27;;;6.30;;
4857;SDS011;58975;51.978;8.472;2022-11-04T21:11:16;19.75;;;5.50;;
4857;SDS011;58975;51.978;8.472;2022-11-04T21:16:13;7.28;;;4.93;;
4857;SDS011;58975;51.978;8.472;2022-11-04T21:21:12;8.18;;;4.75;;
4857;SDS011;58975;51.978;8.472;2022-11-04T21:26:14;8.32;;;5.22;;
4857;SDS011;58975;51.978;8.472;2022-11-04T21:31:16;9.05;;;5.68;;
4857;SDS011;58975;51.978;8.472;2022-11-04T21:36:13;15.20;;;8.77;;
4857;SDS011;58975;51.978;8.472;2022-11-04T21:41:11;13.73;;;7.30;;
4857;SDS011;58975;51.978;8.472;2022-11-04T21:46:11;11.90;;;7.88;;
4857;SDS011;58975;51.978;8.472;2022-11-04T21:51:17;16.77;;;8.93;;
4857;SDS011;58975;51.978;8.472;2022-11-04T21:56:18;20.53;;;11.00;;
4857;SDS011;58975;51.978;8.472;2022-11-04T22:01:17;19.73;;;10.90;;
4857;SDS011;58975;51.978;8.472;2022-11-04T22:06:16;13.02;;;7.80;;
4857;SDS011;58975;51.978;8.472;2022-11-04T22:11:17;15.88;;;9.25;;
4857;SDS011;58975;51.978;8.472;2022-11-04T22:16:16;15.18;;;7.80;;
4857;SDS011;58975;51.978;8.472;2022-11-04T22:21:15;9.80;;;6.88;;
4857;SDS011;58975;51.978;8.472;2022-11-04T22:26:13;14.60;;;9.38;;
4857;SDS011;58975;51.978;8.472;2022-11-04T22:31:13;17.58;;;9.20;;
4857;SDS011;58975;51.978;8.472;2022-11-04T22:36:14;12.95;;;8.07;;
4857;SDS011;58975;51.978;8.472;2022-11-04T22:41:12;11.95;;;7.78;;
4857;SDS011;58975;51.978;8.472;2022-11-04T22:46:22;13.50;;;7.68;;
4857;SDS011;58975;51.978;8.472;2022-11-04T22:51:25;18.25;;;10.68;;
4857;SDS011;58975;51.978;8.472;2022-11-04T22:56:22;15.13;;;9.05;;
4857;SDS011;58975;51.978;8.472;2022-11-04T23:01:19;15.35;;;8.98;;
4857;SDS011;58975;51.978;8.472;2022-11-04T23:06:17;13.77;;;7.80;;
4857;SDS011;58975;51.978;8.472;2022-11-04T23:11:18;12.63;;;7.93;;
4857;SDS011;58975;51.978;8.472;2022-11-04T23:16:36;11.35;;;6.68;;
4857;SDS011;58975;51.978;8.472;2022-11-04T23:21:51;11.38;;;7.00;;
4857;SDS011;58975;51.978;8.472;2022-11-04T23:27:06;11.20;;;6.63;;
4857;SDS011;58975;51.978;8.472;2022-11-04T23:32:03;16.25;;;8.43;;
4857;SDS011;58975;51.978;8.472;2022-11-04T23:37:00;9.73;;;6.70;;
4857;SDS011;58975;51.978;8.472;2022-11-04T23:42:10;11.38;;;7.32;;
4857;SDS011;58975;51.978;8.472;2022-11-04T23:47:11;21.05;;;6.95;;
4857;SDS011;58975;51.978;8.472;2022-11-04T23:52:26;19.83;;;9.57;;
4857;SDS011;58975;51.978;8.472;2022-11-04T23:57:41;12.10;;;8.23;;
